sensor_id;sensor_type;location;lat;lon;timestamp;pressure;altitude;pressure_sealevel;temperature;humidity
5814;BME280;2933;52.302;8.134;2024-02-26T00:01:47;99386.97;;;2.22;82.64
5814;BME280;2933;52.302;8.134;2024-02-26T00:06:50;99381.19;;;1.90;83.06
5814;BME280;2933;52.302;8.134;2024-02-26T00:11:54;99376.97;;;1.89;82.97
5814;BME280;2933;52.302;8.134;2024-02-26T00:16:56;99372.69;;;1.98;82.39
5814;BME280;2933;52.302;8.134;2024-02-26T00:21:59;99370.59;;;1.90;82.70
5814;BME280;2933;52.302;8.134;2024-02-26T00:27:01;99360.56;;;1.77;83.05
5814;BME280;2933;52.302;8.134;2024-02-26T00:32:03;99366.63;;;1.67;81.73
5814;BME280;2933;52.302;8.134;2024-02-26T00:37:06;99365.28;;;1.80;82.12
5814;BME280;2933;52.302;8.134;2024-02-26T00:42:07;99383.03;;;1.54;83.21
5814;BME280;2933;52.302;8.134;2024-02-26T00:47:09;99391.53;;;1.71;83.13
5814;BME280;2933;52.302;8.134;2024-02-26T00:52:12;99388.84;;;1.76;82.73
5814;BME280;2933;52.302;8.134;2024-02-26T00:57:14;99385.41;;;1.86;82.60
5814;BME280;2933;52.302;8.134;2024-02-26T01:02:16;99399.19;;;1.83;82.25
5814;BME280;2933;52.302;8.134;2024-02-26T01:07:19;99396.00;;;1.81;81.70
5814;BME280;2933;52.302;8.134;2024-02-26T01:12:21;99407.13;;;1.77;82.76
5814;BME280;2933;52.302;8.134;2024-02-26T01:17:27;99389.91;;;1.75;83.76
5814;BME280;2933;52.302;8.134;2024-02-26T01:22:30;99392.28;;;1.71;83.30
5814;BME280;2933;52.302;8.134;2024-02-26T01:27:35;99392.31;;;1.77;83.26
5814;BME280;2933;52.302;8.134;2024-02-26T01:32:37;99392.28;;;1.71;81.87
5814;BME280;2933;52.302;8.134;2024-02-26T01:37:40;99389.66;;;1.82;82.62
5814;BME280;2933;52.302;8.134;2024-02-26T01:42:42;99380.13;;;1.81;83.17
5814;BME280;2933;52.302;8.134;2024-02-26T01:47:44;99380.66;;;1.77;84.42
5814;BME280;2933;52.302;8.134;2024-02-26T01:52:47;99370.06;;;1.77;84.87
5814;BME280;2933;52.302;8.134;2024-02-26T01:57:51;99361.59;;;1.86;85.98
5814;BME280;2933;52.302;8.134;2024-02-26T02:02:54;99360.78;;;2.00;86.04
5814;BME280;2933;52.302;8.134;2024-02-26T02:07:58;99364.47;;;2.09;85.89
5814;BME280;2933;52.302;8.134;2024-02-26T02:13:00;99361.00;;;2.24;86.17
5814;BME280;2933;52.302;8.134;2024-02-26T02:18:02;99358.63;;;2.32;85.10
5814;BME280;2933;52.302;8.134;2024-02-26T02:23:05;99367.63;;;2.31;85.70
5814;BME280;2933;52.302;8.134;2024-02-26T02:28:06;99371.31;;;2.35;85.40
5814;BME280;2933;52.302;8.134;2024-02-26T02:33:08;99382.97;;;2.39;85.17
5814;BME280;2933;52.302;8.134;2024-02-26T02:38:13;99372.91;;;2.41;84.78
5814;BME280;2933;52.302;8.134;2024-02-26T02:43:15;99392.22;;;2.47;84.41
5814;BME280;2933;52.302;8.134;2024-02-26T02:48:16;99390.94;;;2.34;84.72
5814;BME280;2933;52.302;8.134;2024-02-26T02:53:19;99394.88;;;2.42;84.77
5814;BME280;2933;52.302;8.134;2024-02-26T02:58:21;99394.88;;;2.37;84.88
5814;BME280;2933;52.302;8.134;2024-02-26T03:03:22;99403.38;;;2.34;85.16
5814;BME280;2933;52.302;8.134;2024-02-26T03:08:26;99400.97;;;2.37;85.35
5814;BME280;2933;52.302;8.134;2024-02-26T03:13:28;99393.28;;;2.46;85.16
5814;BME280;2933;52.302;8.134;2024-02-26T03:18:30;99402.84;;;2.37;85.02
5814;BME280;2933;52.302;8.134;2024-02-26T03:23:33;99409.22;;;2.36;85.28
5814;BME280;2933;52.302;8.134;2024-02-26T03:28:36;99412.88;;;2.50;85.07
5814;BME280;2933;52.302;8.134;2024-02-26T03:33:38;99407.59;;;2.50;84.32
5814;BME280;2933;52.302;8.134;2024-02-26T03:38:42;99410.50;;;2.53;84.19
5814;BME280;2933;52.302;8.134;2024-02-26T03:43:44;99415.78;;;2.63;83.53
5814;BME280;2933;52.302;8.134;2024-02-26T03:48:46;99419.47;;;2.68;83.95
5814;BME280;2933;52.302;8.134;2024-02-26T03:53:49;99426.91;;;2.66;83.43
5814;BME280;2933;52.302;8.134;2024-02-26T03:58:51;99434.84;;;2.66;83.50
5814;BME280;2933;52.302;8.134;2024-02-26T04:03:52;99432.72;;;2.68;84.13
5814;BME280;2933;52.302;8.134;2024-02-26T04:08:55;99426.06;;;2.75;83.22
5814;BME280;2933;52.302;8.134;2024-02-26T04:13:57;99447.25;;;2.85;83.51
5814;BME280;2933;52.302;8.134;2024-02-26T04:18:59;99447.28;;;2.75;83.69
5814;BME280;2933;52.302;8.134;2024-02-26T04:24:02;99445.69;;;2.69;83.95
5814;BME280;2933;52.302;8.134;2024-02-26T04:29:04;99454.19;;;2.66;84.00
5814;BME280;2933;52.302;8.134;2024-02-26T04:34:05;99451.03;;;2.59;84.41
5814;BME280;2933;52.302;8.134;2024-02-26T04:39:08;99457.09;;;2.64;83.76
5814;BME280;2933;52.302;8.134;2024-02-26T04:44:11;99457.38;;;2.68;84.33
5814;BME280;2933;52.302;8.134;2024-02-26T04:49:13;99462.41;;;2.64;84.26
5814;BME280;2933;52.302;8.134;2024-02-26T04:54:16;99469.81;;;2.73;83.98
5814;BME280;2933;52.302;8.134;2024-02-26T04:59:17;99473.25;;;2.73;83.42
5814;BME280;2933;52.302;8.134;2024-02-26T05:04:19;99473.25;;;2.73;84.03
5814;BME280;2933;52.302;8.134;2024-02-26T05:09:22;99479.34;;;2.69;83.55
5814;BME280;2933;52.302;8.134;2024-02-26T05:14:24;99480.69;;;2.76;82.69
5814;BME280;2933;52.302;8.134;2024-02-26T05:19:25;99471.66;;;2.77;82.34
5814;BME280;2933;52.302;8.134;2024-02-26T05:24:28;99476.69;;;2.79;82.60
5814;BME280;2933;52.302;8.134;2024-02-26T05:29:30;99488.09;;;2.84;82.12
5814;BME280;2933;52.302;8.134;2024-02-26T05:34:32;99492.84;;;2.87;81.75
5814;BME280;2933;52.302;8.134;2024-02-26T05:39:35;99489.16;;;2.88;82.53
5814;BME280;2933;52.302;8.134;2024-02-26T05:44:37;99491.53;;;2.90;82.34
5814;BME280;2933;52.302;8.134;2024-02-26T05:49:39;99506.63;;;2.89;82.14
5814;BME280;2933;52.302;8.134;2024-02-26T05:54:42;99516.16;;;3.00;82.04
5814;BME280;2933;52.302;8.134;2024-02-26T05:59:53;99524.91;;;3.01;82.38
5814;BME280;2933;52.302;8.134;2024-02-26T06:04:54;99537.88;;;3.02;82.91
5814;BME280;2933;52.302;8.134;2024-02-26T06:10:10;99533.16;;;2.94;82.80
5814;BME280;2933;52.302;8.134;2024-02-26T06:15:17;99539.50;;;3.03;82.10
5814;BME280;2933;52.302;8.134;2024-02-26T06:20:22;99543.47;;;3.01;81.54
5814;BME280;2933;52.302;8.134;2024-02-26T06:25:25;99545.84;;;3.02;82.12
5814;BME280;2933;52.302;8.134;2024-02-26T06:30:27;99552.19;;;3.06;81.97
5814;BME280;2933;52.302;8.134;2024-02-26T06:35:28;99562.03;;;3.01;82.18
5814;BME280;2933;52.302;8.134;2024-02-26T06:40:31;99562.31;;;2.99;81.69
5814;BME280;2933;52.302;8.134;2024-02-26T06:45:33;99561.50;;;3.04;82.60
5814;BME280;2933;52.302;8.134;2024-02-26T06:50:35;99569.47;;;2.99;82.32
5814;BME280;2933;52.302;8.134;2024-02-26T06:55:38;99567.56;;;3.14;81.02
5814;BME280;2933;52.302;8.134;2024-02-26T07:00:41;99571.28;;;3.23;81.34
5814;BME280;2933;52.302;8.134;2024-02-26T07:05:42;99579.75;;;3.25;80.08
5814;BME280;2933;52.302;8.134;2024-02-26T07:10:46;99582.94;;;3.27;80.52
5814;BME280;2933;52.302;8.134;2024-02-26T07:15:48;99589.28;;;3.26;80.28
5814;BME280;2933;52.302;8.134;2024-02-26T07:20:50;99586.38;;;3.38;79.69
5814;BME280;2933;52.302;8.134;2024-02-26T07:25:53;99586.63;;;3.36;80.09
5814;BME280;2933;52.302;8.134;2024-02-26T07:30:54;99584.50;;;3.33;80.36
5814;BME280;2933;52.302;8.134;2024-02-26T07:35:59;99579.72;;;3.35;80.16
5814;BME280;2933;52.302;8.134;2024-02-26T07:41:03;99571.22;;;3.43;80.20
5814;BME280;2933;52.302;8.134;2024-02-26T07:46:11;99578.63;;;3.52;79.33
5814;BME280;2933;52.302;8.134;2024-02-26T07:51:13;99577.53;;;3.58;78.99
5814;BME280;2933;52.302;8.134;2024-02-26T07:56:16;99590.78;;;3.68;80.00
5814;BME280;2933;52.302;8.134;2024-02-26T08:01:18;99592.41;;;3.54;79.72
5814;BME280;2933;52.302;8.134;2024-02-26T08:06:20;99594.50;;;3.62;79.84
5814;BME280;2933;52.302;8.134;2024-02-26T08:11:23;99604.81;;;3.68;79.59
5814;BME280;2933;52.302;8.134;2024-02-26T08:16:24;99602.44;;;3.67;79.38
5814;BME280;2933;52.302;8.134;2024-02-26T08:21:26;99603.53;;;3.66;80.64
5814;BME280;2933;52.302;8.134;2024-02-26T08:26:34;99610.13;;;3.73;80.09
5814;BME280;2933;52.302;8.134;2024-02-26T08:31:35;99617.81;;;3.80;79.99
5814;BME280;2933;52.302;8.134;2024-02-26T08:36:37;99621.25;;;3.80;80.57
5814;BME280;2933;52.302;8.134;2024-02-26T08:41:48;99633.44;;;3.86;80.65
5814;BME280;2933;52.302;8.134;2024-02-26T08:46:54;99635.25;;;3.96;80.72
5814;BME280;2933;52.302;8.134;2024-02-26T08:52:01;99645.63;;;3.92;80.93
5814;BME280;2933;52.302;8.134;2024-02-26T08:57:09;99652.25;;;3.95;80.67
5814;BME280;2933;52.302;8.134;2024-02-26T09:02:11;99661.28;;;3.99;80.75
5814;BME280;2933;52.302;8.134;2024-02-26T09:07:13;99665.22;;;4.06;80.05
5814;BME280;2933;52.302;8.134;2024-02-26T09:12:18;99669.19;;;4.14;80.25
5814;BME280;2933;52.302;8.134;2024-02-26T09:17:21;99681.13;;;4.16;79.20
5814;BME280;2933;52.302;8.134;2024-02-26T09:22:23;99677.09;;;4.24;79.85
5814;BME280;2933;52.302;8.134;2024-02-26T09:27:29;99683.41;;;4.38;79.30
5814;BME280;2933;52.302;8.134;2024-02-26T09:32:35;99691.38;;;4.43;78.22
5814;BME280;2933;52.302;8.134;2024-02-26T09:37:37;99694.50;;;4.55;78.42
5814;BME280;2933;52.302;8.134;2024-02-26T09:43:05;99700.84;;;4.59;78.94
5814;BME280;2933;52.302;8.134;2024-02-26T09:48:14;99700.81;;;4.64;78.68
5814;BME280;2933;52.302;8.134;2024-02-26T09:53:22;99692.03;;;4.64;78.69
5814;BME280;2933;52.302;8.134;2024-02-26T09:58:39;99693.88;;;4.68;79.01
5814;BME280;2933;52.302;8.134;2024-02-26T10:03:43;99697.56;;;4.72;78.69
5814;BME280;2933;52.302;8.134;2024-02-26T10:08:45;99714.56;;;4.76;77.95
5814;BME280;2933;52.302;8.134;2024-02-26T10:13:48;99700.47;;;4.76;78.50
5814;BME280;2933;52.302;8.134;2024-02-26T10:18:51;99714.53;;;4.81;77.38
5814;BME280;2933;52.302;8.134;2024-02-26T10:23:55;99726.53;;;4.79;77.52
5814;BME280;2933;52.302;8.134;2024-02-26T10:29:00;99739.53;;;4.80;78.32
5814;BME280;2933;52.302;8.134;2024-02-26T10:34:03;99739.50;;;4.85;77.17
5814;BME280;2933;52.302;8.134;2024-02-26T10:39:04;99747.69;;;4.94;78.91
5814;BME280;2933;52.302;8.134;2024-02-26T10:44:12;99746.88;;;4.98;77.59
5814;BME280;2933;52.302;8.134;2024-02-26T10:49:14;99756.44;;;5.04;76.98
5814;BME280;2933;52.302;8.134;2024-02-26T10:54:19;99765.97;;;5.10;75.88
5814;BME280;2933;52.302;8.134;2024-02-26T10:59:23;99763.22;;;5.20;75.98
5814;BME280;2933;52.302;8.134;2024-02-26T11:04:34;99768.00;;;5.23;76.28
5814;BME280;2933;52.302;8.134;2024-02-26T11:09:36;99771.09;;;5.36;76.45
5814;BME280;2933;52.302;8.134;2024-02-26T11:14:52;99769.47;;;5.40;77.06
5814;BME280;2933;52.302;8.134;2024-02-26T11:20:18;99776.84;;;5.48;75.37
5814;BME280;2933;52.302;8.134;2024-02-26T11:31:06;99771.00;;;5.51;76.89
5814;BME280;2933;52.302;8.134;2024-02-26T11:36:19;99767.44;;;5.60;76.24
5814;BME280;2933;52.302;8.134;2024-02-26T11:41:27;99762.63;;;5.62;76.56
5814;BME280;2933;52.302;8.134;2024-02-26T11:46:42;99759.38;;;5.65;75.16
5814;BME280;2933;52.302;8.134;2024-02-26T11:51:50;99770.78;;;5.71;75.99
5814;BME280;2933;52.302;8.134;2024-02-26T11:56:52;99781.06;;;5.87;74.61
5814;BME280;2933;52.302;8.134;2024-02-26T12:02:04;99786.88;;;5.94;73.67
5814;BME280;2933;52.302;8.134;2024-02-26T12:07:05;99794.47;;;6.06;73.85
5814;BME280;2933;52.302;8.134;2024-02-26T12:12:08;99800.88;;;6.05;73.69
5814;BME280;2933;52.302;8.134;2024-02-26T12:17:20;99804.06;;;6.07;74.23
5814;BME280;2933;52.302;8.134;2024-02-26T12:22:22;99812.56;;;6.09;73.67
5814;BME280;2933;52.302;8.134;2024-02-26T12:27:26;99806.16;;;6.10;72.12
5814;BME280;2933;52.302;8.134;2024-02-26T12:32:30;99800.72;;;6.20;72.22
5814;BME280;2933;52.302;8.134;2024-02-26T12:37:32;99810.59;;;6.20;72.72
5814;BME280;2933;52.302;8.134;2024-02-26T12:42:34;99822.28;;;6.24;72.52
5814;BME280;2933;52.302;8.134;2024-02-26T12:47:41;99832.03;;;6.33;73.45
5814;BME280;2933;52.302;8.134;2024-02-26T12:52:45;99853.06;;;6.40;72.43
5814;BME280;2933;52.302;8.134;2024-02-26T12:57:47;99855.34;;;6.46;71.92
5814;BME280;2933;52.302;8.134;2024-02-26T13:02:52;99858.16;;;6.60;71.80
5814;BME280;2933;52.302;8.134;2024-02-26T13:07:55;99853.06;;;6.63;70.69
5814;BME280;2933;52.302;8.134;2024-02-26T13:12:57;99863.72;;;6.63;70.52
5814;BME280;2933;52.302;8.134;2024-02-26T13:18:09;99865.81;;;6.66;70.69
5814;BME280;2933;52.302;8.134;2024-02-26T13:23:12;99865.81;;;6.66;69.85
5814;BME280;2933;52.302;8.134;2024-02-26T13:28:15;99877.00;;;6.68;70.31
5814;BME280;2933;52.302;8.134;2024-02-26T13:33:19;99877.75;;;6.74;69.83
5814;BME280;2933;52.302;8.134;2024-02-26T13:38:20;99889.28;;;6.69;70.95
5814;BME280;2933;52.302;8.134;2024-02-26T13:43:22;99899.13;;;6.69;70.68
5814;BME280;2933;52.302;8.134;2024-02-26T13:48:25;99900.16;;;6.73;69.72
5814;BME280;2933;52.302;8.134;2024-02-26T13:53:27;99909.47;;;6.75;70.75
5814;BME280;2933;52.302;8.134;2024-02-26T13:58:29;99919.34;;;6.75;70.50
5814;BME280;2933;52.302;8.134;2024-02-26T14:03:32;99911.06;;;6.76;69.79
5814;BME280;2933;52.302;8.134;2024-02-26T14:08:33;99917.19;;;6.77;70.16
5814;BME280;2933;52.302;8.134;2024-02-26T14:13:35;99918.19;;;6.86;70.78
5814;BME280;2933;52.302;8.134;2024-02-26T14:18:38;99921.69;;;6.81;70.15
5814;BME280;2933;52.302;8.134;2024-02-26T14:23:39;99919.03;;;6.81;70.63
5814;BME280;2933;52.302;8.134;2024-02-26T14:28:42;99928.34;;;6.84;70.12
5814;BME280;2933;52.302;8.134;2024-02-26T14:33:45;99935.06;;;6.76;69.83
5814;BME280;2933;52.302;8.134;2024-02-26T14:38:48;99937.19;;;6.79;70.72
5814;BME280;2933;52.302;8.134;2024-02-26T14:43:50;99947.34;;;6.77;70.92
5814;BME280;2933;52.302;8.134;2024-02-26T14:48:53;99948.41;;;6.76;71.61
5814;BME280;2933;52.302;8.134;2024-02-26T14:53:54;99954.84;;;6.75;71.97
5814;BME280;2933;52.302;8.134;2024-02-26T14:58:57;99959.09;;;6.76;71.21
5814;BME280;2933;52.302;8.134;2024-02-26T15:04:00;99967.06;;;6.81;71.15
5814;BME280;2933;52.302;8.134;2024-02-26T15:09:01;99973.53;;;6.75;71.17
5814;BME280;2933;52.302;8.134;2024-02-26T15:14:05;99978.06;;;6.75;71.51
5814;BME280;2933;52.302;8.134;2024-02-26T15:19:08;99994.31;;;6.78;71.80
5814;BME280;2933;52.302;8.134;2024-02-26T15:24:10;100000.16;;;6.80;72.77
5814;BME280;2933;52.302;8.134;2024-02-26T15:29:12;100006.63;;;6.74;72.67
5814;BME280;2933;52.302;8.134;2024-02-26T15:34:15;100027.41;;;6.77;72.57
5814;BME280;2933;52.302;8.134;2024-02-26T15:39:17;100028.47;;;6.76;73.43
5814;BME280;2933;52.302;8.134;2024-02-26T15:44:20;100035.44;;;6.77;73.47
5814;BME280;2933;52.302;8.134;2024-02-26T15:49:24;100038.13;;;6.72;73.82
5814;BME280;2933;52.302;8.134;2024-02-26T15:54:25;100046.13;;;6.72;74.43
5814;BME280;2933;52.302;8.134;2024-02-26T15:59:27;100044.56;;;6.71;75.13
5814;BME280;2933;52.302;8.134;2024-02-26T16:04:30;100058.44;;;6.68;75.26
5814;BME280;2933;52.302;8.134;2024-02-26T16:09:32;100069.91;;;6.69;75.62
5814;BME280;2933;52.302;8.134;2024-02-26T16:14:42;100079.88;;;6.58;76.58
5814;BME280;2933;52.302;8.134;2024-02-26T16:19:47;100082.59;;;6.53;77.17
5814;BME280;2933;52.302;8.134;2024-02-26T16:24:49;100091.13;;;6.50;77.77
5814;BME280;2933;52.302;8.134;2024-02-26T16:29:50;100092.28;;;6.39;78.91
5814;BME280;2933;52.302;8.134;2024-02-26T16:34:54;100107.53;;;6.29;79.02
5814;BME280;2933;52.302;8.134;2024-02-26T16:39:58;100113.97;;;6.23;79.00
5814;BME280;2933;52.302;8.134;2024-02-26T16:45:00;100122.81;;;6.18;79.34
5814;BME280;2933;52.302;8.134;2024-02-26T16:50:06;100118.03;;;6.15;79.79
5814;BME280;2933;52.302;8.134;2024-02-26T16:55:08;100122.59;;;6.09;79.36
5814;BME280;2933;52.302;8.134;2024-02-26T17:00:11;100129.50;;;6.10;79.98
5814;BME280;2933;52.302;8.134;2024-02-26T17:05:16;100133.84;;;6.01;79.74
5814;BME280;2933;52.302;8.134;2024-02-26T17:10:18;100142.63;;;5.97;79.71
5814;BME280;2933;52.302;8.134;2024-02-26T17:15:20;100145.81;;;6.04;79.93
5814;BME280;2933;52.302;8.134;2024-02-26T17:20:23;100166.38;;;5.98;79.93
5814;BME280;2933;52.302;8.134;2024-02-26T17:25:24;100167.72;;;5.96;79.35
5814;BME280;2933;52.302;8.134;2024-02-26T17:30:26;100171.72;;;5.93;80.18
5814;BME280;2933;52.302;8.134;2024-02-26T17:35:29;100189.59;;;5.88;80.46
5814;BME280;2933;52.302;8.134;2024-02-26T17:40:31;100197.03;;;5.91;79.86
5814;BME280;2933;52.302;8.134;2024-02-26T17:45:33;100205.06;;;5.86;80.31
5814;BME280;2933;52.302;8.134;2024-02-26T17:50:37;100213.53;;;5.83;80.96
5814;BME280;2933;52.302;8.134;2024-02-26T17:55:39;100220.47;;;5.79;81.11
5814;BME280;2933;52.302;8.134;2024-02-26T18:00:41;100234.34;;;5.76;81.42
5814;BME280;2933;52.302;8.134;2024-02-26T18:05:44;100238.59;;;5.77;81.70
5814;BME280;2933;52.302;8.134;2024-02-26T18:10:45;100243.44;;;5.70;81.73
5814;BME280;2933;52.302;8.134;2024-02-26T18:15:47;100253.28;;;5.69;82.20
5814;BME280;2933;52.302;8.134;2024-02-26T18:20:50;100256.19;;;5.63;82.44
5814;BME280;2933;52.302;8.134;2024-02-26T18:25:52;100259.97;;;5.57;82.84
5814;BME280;2933;52.302;8.134;2024-02-26T18:30:54;100263.66;;;5.61;82.85
5814;BME280;2933;52.302;8.134;2024-02-26T18:35:59;100284.19;;;5.45;82.91
5814;BME280;2933;52.302;8.134;2024-02-26T18:41:00;100279.41;;;5.52;82.91
5814;BME280;2933;52.302;8.134;2024-02-26T18:46:06;100294.31;;;5.48;82.72
5814;BME280;2933;52.302;8.134;2024-02-26T18:51:09;100317.47;;;5.38;83.24
5814;BME280;2933;52.302;8.134;2024-02-26T18:56:11;100326.78;;;5.35;83.57
5814;BME280;2933;52.302;8.134;2024-02-26T19:01:14;100335.31;;;5.37;83.39
5814;BME280;2933;52.302;8.134;2024-02-26T19:06:17;100350.75;;;5.30;83.41
5814;BME280;2933;52.302;8.134;2024-02-26T19:11:19;100363.81;;;5.37;83.12
5814;BME280;2933;52.302;8.134;2024-02-26T19:16:21;100374.19;;;5.28;83.50
5814;BME280;2933;52.302;8.134;2024-02-26T19:21:26;100377.63;;;5.23;83.01
5814;BME280;2933;52.302;8.134;2024-02-26T19:26:27;100375.50;;;5.20;84.14
5814;BME280;2933;52.302;8.134;2024-02-26T19:31:29;100382.91;;;5.13;83.50
5814;BME280;2933;52.302;8.134;2024-02-26T19:36:32;100385.84;;;5.07;83.34
5814;BME280;2933;52.302;8.134;2024-02-26T19:41:34;100397.81;;;5.04;82.62
5814;BME280;2933;52.302;8.134;2024-02-26T19:46:36;100403.41;;;5.08;83.67
5814;BME280;2933;52.302;8.134;2024-02-26T19:51:39;100411.91;;;5.05;83.66
5814;BME280;2933;52.302;8.134;2024-02-26T19:56:42;100418.56;;;5.02;83.92
5814;BME280;2933;52.302;8.134;2024-02-26T20:01:45;100430.25;;;4.96;83.54
5814;BME280;2933;52.302;8.134;2024-02-26T20:06:48;100425.69;;;4.87;82.87
5814;BME280;2933;52.302;8.134;2024-02-26T20:11:50;100427.50;;;4.81;82.72
5814;BME280;2933;52.302;8.134;2024-02-26T20:16:52;100434.66;;;4.76;82.79
5814;BME280;2933;52.302;8.134;2024-02-26T20:21:55;100436.53;;;4.80;82.58
5814;BME280;2933;52.302;8.134;2024-02-26T20:26:56;100459.38;;;4.71;82.92
5814;BME280;2933;52.302;8.134;2024-02-26T20:32:01;100458.84;;;4.69;82.82
5814;BME280;2933;52.302;8.134;2024-02-26T20:37:04;100474.25;;;4.67;83.43
5814;BME280;2933;52.302;8.134;2024-02-26T20:42:06;100482.72;;;4.59;82.96
5814;BME280;2933;52.302;8.134;2024-02-26T20:47:07;100480.59;;;4.61;82.61
5814;BME280;2933;52.302;8.134;2024-02-26T20:52:10;100490.44;;;4.61;82.98
5814;BME280;2933;52.302;8.134;2024-02-26T20:57:12;100497.13;;;4.73;82.67
5814;BME280;2933;52.302;8.134;2024-02-26T21:02:14;100514.31;;;4.56;83.07
5814;BME280;2933;52.302;8.134;2024-02-26T21:07:17;100521.03;;;4.63;82.84
5814;BME280;2933;52.302;8.134;2024-02-26T21:12:18;100536.94;;;4.58;82.66
5814;BME280;2933;52.302;8.134;2024-02-26T21:17:20;100551.88;;;4.59;82.67
5814;BME280;2933;52.302;8.134;2024-02-26T21:22:23;100558.75;;;4.55;83.73
5814;BME280;2933;52.302;8.134;2024-02-26T21:27:25;100568.56;;;4.55;83.11
5814;BME280;2933;52.302;8.134;2024-02-26T21:32:27;100579.56;;;4.63;83.03
5814;BME280;2933;52.302;8.134;2024-02-26T21:37:30;100585.81;;;4.47;83.29
5814;BME280;2933;52.302;8.134;2024-02-26T21:42:32;100578.56;;;4.43;83.59
5814;BME280;2933;52.302;8.134;2024-02-26T21:47:34;100587.91;;;4.45;83.55
5814;BME280;2933;52.302;8.134;2024-02-26T21:52:37;100604.88;;;4.39;83.95
5814;BME280;2933;52.302;8.134;2024-02-26T21:57:39;100608.63;;;4.43;83.70
5814;BME280;2933;52.302;8.134;2024-02-26T22:02:41;100612.03;;;4.38;83.88
5814;BME280;2933;52.302;8.134;2024-02-26T22:07:45;100619.00;;;4.45;84.02
5814;BME280;2933;52.302;8.134;2024-02-26T22:12:46;100624.53;;;4.38;83.83
5814;BME280;2933;52.302;8.134;2024-02-26T22:17:48;100621.06;;;4.37;83.85
5814;BME280;2933;52.302;8.134;2024-02-26T22:22:51;100627.44;;;4.36;83.95
5814;BME280;2933;52.302;8.134;2024-02-26T22:27:53;100638.88;;;4.37;84.72
5814;BME280;2933;52.302;8.134;2024-02-26T22:32:54;100641.09;;;4.45;83.86
5814;BME280;2933;52.302;8.134;2024-02-26T22:37:57;100637.16;;;4.26;84.78
5814;BME280;2933;52.302;8.134;2024-02-26T22:42:59;100641.47;;;4.32;84.72
5814;BME280;2933;52.302;8.134;2024-02-26T22:48:01;100647.59;;;4.32;83.86
5814;BME280;2933;52.302;8.134;2024-02-26T22:53:05;100660.63;;;4.34;83.98
5814;BME280;2933;52.302;8.134;2024-02-26T22:58:07;100666.34;;;4.21;84.90
5814;BME280;2933;52.302;8.134;2024-02-26T23:03:09;100658.38;;;4.21;84.19
5814;BME280;2933;52.302;8.134;2024-02-26T23:08:12;100661.03;;;4.21;84.18
5814;BME280;2933;52.302;8.134;2024-02-26T23:13:14;100670.16;;;4.30;83.98
5814;BME280;2933;52.302;8.134;2024-02-26T23:23:36;100685.81;;;4.26;84.39
5814;BME280;2933;52.302;8.134;2024-02-26T23:28:38;100679.56;;;4.16;84.96
5814;BME280;2933;52.302;8.134;2024-02-26T23:33:41;100686.00;;;4.20;84.45
5814;BME280;2933;52.302;8.134;2024-02-26T23:38:44;100692.31;;;4.14;84.95
5814;BME280;2933;52.302;8.134;2024-02-26T23:43:46;100694.34;;;4.07;85.07
5814;BME280;2933;52.302;8.134;2024-02-26T23:48:47;100696.88;;;4.18;84.80
5814;BME280;2933;52.302;8.134;2024-02-26T23:53:50;100706.16;;;4.16;84.01
5814;BME280;2933;52.302;8.134;2024-02-26T23:58:52;100718.31;;;4.12;84.48
